Time;durP1;ratioP1;P1;durP2;ratioP2;P2;SDS_P1;SDS_P2;PMS_P1;PMS_P2;Temp;Humidity;BMP_temperature;BMP_pressure;BME280_temperature;BME280_humidity;BME280_pressure;Samples;Min_cycle;Max_cycle;Signal;HPM_P1;HPM_P2
2021/05/28 00:01:38;;;;;;;3.63;2.22;;;12.60;99.90;;;;;;5091343;28;20571;-75
2021/05/28 00:04:04;;;;;;;2.22;2.03;;;12.60;99.90;;;;;;5090994;28;20028;-76
2021/05/28 00:06:29;;;;;;;3.55;2.10;;;12.70;99.90;;;;;;5085002;28;20024;-75
2021/05/28 00:08:55;;;;;;;4.22;2.40;;;12.70;99.90;;;;;;5089148;28;20387;-75
2021/05/28 00:11:20;;;;;;;2.95;2.50;;;12.70;99.90;;;;;;5090894;28;20058;-76
2021/05/28 00:13:46;;;;;;;4.18;2.30;;;12.70;99.90;;;;;;5090603;28;20097;-75
2021/05/28 00:16:12;;;;;;;5.93;2.60;;;12.70;99.90;;;;;;5090917;28;20066;-76
2021/05/28 00:18:37;;;;;;;2.58;2.22;;;12.60;99.90;;;;;;5090664;28;20485;-75
2021/05/28 00:21:03;;;;;;;3.50;2.10;;;12.60;99.90;;;;;;5090020;28;20533;-76
2021/05/28 00:23:29;;;;;;;3.22;2.70;;;12.60;99.90;;;;;;5090073;28;20036;-75
2021/05/28 00:25:54;;;;;;;2.58;2.13;;;12.60;99.90;;;;;;5091312;28;20374;-75
2021/05/28 00:28:20;;;;;;;4.90;2.42;;;12.60;99.90;;;;;;5091062;28;20028;-75
2021/05/28 00:30:45;;;;;;;2.83;2.20;;;12.60;99.90;;;;;;5091142;28;20119;-75
2021/05/28 00:33:11;;;;;;;4.93;2.58;;;12.60;99.90;;;;;;5087407;28;20056;-75
2021/05/28 00:35:36;;;;;;;3.75;2.60;;;12.60;99.90;;;;;;5090907;28;20036;-75
2021/05/28 00:38:02;;;;;;;4.22;2.42;;;12.60;99.90;;;;;;5090467;28;20486;-75
2021/05/28 00:40:27;;;;;;;8.32;2.60;;;12.60;99.90;;;;;;5089930;28;20027;-75
2021/05/28 00:42:56;;;;;;;4.72;2.83;;;12.60;99.90;;;;;;5089799;28;20036;-75
2021/05/28 00:45:21;;;;;;;2.50;2.30;;;12.60;99.90;;;;;;5090141;28;20032;-75
2021/05/28 00:47:47;;;;;;;7.30;2.78;;;12.60;99.90;;;;;;5090714;28;20177;-75
2021/05/28 00:50:13;;;;;;;3.35;2.65;;;12.60;99.90;;;;;;5088952;28;20046;-75
2021/05/28 00:52:40;;;;;;;2.50;2.30;;;12.60;99.90;;;;;;5086515;28;20043;-74
2021/05/28 00:55:07;;;;;;;2.80;2.50;;;12.50;99.90;;;;;;5084904;28;20046;-74
2021/05/28 00:57:33;;;;;;;3.65;2.53;;;12.50;99.90;;;;;;5090506;28;20441;-75
2021/05/28 00:59:59;;;;;;;3.28;2.50;;;12.50;99.90;;;;;;5088802;28;20624;-76
2021/05/28 01:02:26;;;;;;;3.13;2.60;;;12.40;99.90;;;;;;5089729;28;20036;-75
2021/05/28 01:04:52;;;;;;;4.28;2.80;;;12.40;99.90;;;;;;5090297;28;20110;-75
2021/05/28 01:07:18;;;;;;;5.72;3.10;;;12.40;99.90;;;;;;5089548;28;20077;-75
2021/05/28 01:09:43;;;;;;;4.05;2.83;;;12.40;99.90;;;;;;5089660;28;20421;-75
2021/05/28 01:12:09;;;;;;;3.25;2.50;;;12.40;99.90;;;;;;5090243;28;20043;-75
2021/05/28 01:14:34;;;;;;;5.95;3.17;;;12.40;99.90;;;;;;5089565;28;20032;-75
2021/05/28 01:17:00;;;;;;;3.13;2.78;;;12.40;99.90;;;;;;5089790;28;20028;-75
2021/05/28 01:19:26;;;;;;;3.97;2.53;;;12.40;99.90;;;;;;5089249;28;20550;-75
2021/05/28 01:22:02;;;;;;;5.20;3.00;;;12.40;99.90;;;;;;5090343;28;20045;-75
2021/05/28 01:24:27;;;;;;;5.78;3.17;;;12.40;99.90;;;;;;5089100;28;20118;-75
2021/05/28 01:26:52;;;;;;;5.50;2.97;;;12.30;99.90;;;;;;5089694;28;20123;-75
2021/05/28 01:29:18;;;;;;;4.80;2.90;;;12.30;99.90;;;;;;5083283;28;20025;-74
2021/05/28 01:31:44;;;;;;;4.50;3.03;;;12.30;99.90;;;;;;5088675;28;20113;-75
2021/05/28 01:34:09;;;;;;;3.10;2.80;;;12.30;99.90;;;;;;5089173;28;20116;-74
2021/05/28 01:36:34;;;;;;;3.97;2.92;;;12.30;99.90;;;;;;5089326;28;20028;-75
2021/05/28 01:39:00;;;;;;;5.00;2.97;;;12.30;99.90;;;;;;5089249;28;20107;-75
2021/05/28 01:41:31;;;;;;;3.08;2.78;;;12.30;99.90;;;;;;5088818;28;20034;-74
2021/05/28 01:43:57;;;;;;;3.15;2.85;;;12.20;99.90;;;;;;5088738;28;20035;-75
2021/05/28 01:46:24;;;;;;;3.90;3.08;;;12.20;99.90;;;;;;5089120;28;20024;-75
2021/05/28 01:48:50;;;;;;;15.98;3.10;;;12.20;99.90;;;;;;5089044;28;20046;-74
2021/05/28 01:51:16;;;;;;;2.88;2.58;;;12.20;99.90;;;;;;5088949;28;20534;-74
2021/05/28 01:53:41;;;;;;;4.43;3.05;;;12.20;99.90;;;;;;5088885;28;20048;-75
2021/05/28 01:56:07;;;;;;;6.18;3.30;;;12.20;99.90;;;;;;5088719;28;20027;-75
2021/05/28 01:58:33;;;;;;;4.47;2.90;;;12.20;99.90;;;;;;5088750;28;20080;-74
2021/05/28 02:00:58;;;;;;;3.22;2.85;;;12.10;99.90;;;;;;5089074;28;20028;-75
2021/05/28 02:03:25;;;;;;;5.55;2.78;;;12.10;99.90;;;;;;5089096;28;20032;-75
2021/05/28 02:05:51;;;;;;;3.90;2.78;;;12.20;99.90;;;;;;5088355;28;20081;-75
2021/05/28 02:08:17;;;;;;;6.75;3.30;;;12.20;99.90;;;;;;5088390;28;20217;-75
2021/05/28 02:10:43;;;;;;;4.65;3.20;;;12.10;99.90;;;;;;5088833;28;20144;-75
2021/05/28 02:13:41;;;;;;;3.30;2.97;;;12.10;99.90;;;;;;5088715;28;20108;-75
2021/05/28 02:16:06;;;;;;;3.45;3.10;;;12.10;99.90;;;;;;5081069;28;20028;-74
2021/05/28 02:18:32;;;;;;;4.78;3.05;;;12.10;99.90;;;;;;5089035;28;20104;-75
2021/05/28 02:20:57;;;;;;;3.35;2.80;;;12.10;99.90;;;;;;5088670;28;20119;-76
2021/05/28 02:23:23;;;;;;;4.03;2.83;;;12.10;99.90;;;;;;5088590;28;20141;-76
2021/05/28 02:26:18;;;;;;;9.65;3.30;;;12.10;99.90;;;;;;5088321;28;20032;-75
2021/05/28 02:28:46;;;;;;;4.95;2.92;;;12.00;99.90;;;;;;5086007;28;20032;-75
2021/05/28 02:31:12;;;;;;;3.55;3.05;;;12.00;99.90;;;;;;5088194;28;20032;-75
2021/05/28 02:33:37;;;;;;;7.50;2.83;;;12.00;99.90;;;;;;5088321;28;20062;-75
2021/05/28 02:36:04;;;;;;;3.47;2.67;;;12.00;99.90;;;;;;5088199;28;20399;-76
2021/05/28 02:38:30;;;;;;;4.40;2.65;;;12.00;99.90;;;;;;5088353;28;20106;-76
2021/05/28 02:40:55;;;;;;;2.92;2.60;;;12.00;99.90;;;;;;5085497;28;20103;-76
2021/05/28 02:43:21;;;;;;;5.03;3.05;;;12.00;99.90;;;;;;5087719;28;20050;-75
2021/05/28 02:45:46;;;;;;;2.70;2.45;;;12.00;99.90;;;;;;5087525;28;20028;-76
2021/05/28 02:48:12;;;;;;;3.70;2.50;;;12.00;99.90;;;;;;5086870;28;20066;-75
2021/05/28 02:50:38;;;;;;;5.03;2.58;;;12.00;99.90;;;;;;5087776;28;20678;-76
2021/05/28 02:53:03;;;;;;;3.13;2.00;;;12.00;99.90;;;;;;5087663;28;20070;-75
2021/05/28 02:55:30;;;;;;;4.20;2.03;;;11.90;99.90;;;;;;5087988;28;20031;-75
2021/05/28 02:57:55;;;;;;;1.88;1.75;;;11.90;99.90;;;;;;5088274;28;20280;-75
2021/05/28 03:00:22;;;;;;;3.05;1.90;;;11.90;99.90;;;;;;5088285;28;20460;-75
2021/05/28 03:05:23;;;;;;;3.08;2.05;;;11.80;99.90;;;;;;6015485;22;20057;-76
2021/05/28 03:07:49;;;;;;;2.00;1.85;;;11.80;99.90;;;;;;5069857;28;20398;-76
2021/05/28 03:10:14;;;;;;;4.03;1.83;;;11.80;99.90;;;;;;5080345;28;20085;-76
2021/05/28 03:12:40;;;;;;;3.58;1.90;;;11.80;99.90;;;;;;5069010;28;20263;-75
2021/05/28 03:15:07;;;;;;;2.28;1.80;;;11.70;99.90;;;;;;5067885;28;20033;-75
2021/05/28 03:17:33;;;;;;;4.13;2.15;;;11.80;99.90;;;;;;5080466;28;20020;-75
2021/05/28 03:19:59;;;;;;;3.22;2.00;;;11.80;99.90;;;;;;5086245;28;20177;-75
2021/05/28 03:22:32;;;;;;;2.85;1.90;;;11.70;99.90;;;;;;5081074;28;20378;-76
2021/05/28 03:25:03;;;;;;;3.13;2.10;;;11.70;99.90;;;;;;5087930;28;20036;-75
2021/05/28 03:27:28;;;;;;;3.38;2.03;;;11.60;99.90;;;;;;5072668;28;20102;-75
2021/05/28 03:29:54;;;;;;;2.92;1.60;;;11.60;99.90;;;;;;5086803;28;20111;-76
2021/05/28 03:32:20;;;;;;;4.57;1.70;;;11.60;99.90;;;;;;5070883;28;20028;-75
2021/05/28 03:34:45;;;;;;;1.60;1.50;;;11.50;99.90;;;;;;5068001;28;20017;-75
2021/05/28 03:37:11;;;;;;;2.03;1.60;;;11.50;99.90;;;;;;5082367;28;20086;-76
2021/05/28 03:39:37;;;;;;;1.48;1.35;;;11.50;99.90;;;;;;5085761;28;20107;-75
2021/05/28 03:42:03;;;;;;;5.10;1.58;;;11.50;99.90;;;;;;5082734;28;20116;-76
2021/05/28 03:44:28;;;;;;;2.97;1.77;;;11.50;99.90;;;;;;5068519;28;20033;-75
2021/05/28 03:46:55;;;;;;;8.45;1.50;;;11.50;99.90;;;;;;5077929;28;20027;-75
2021/05/28 03:49:20;;;;;;;2.67;1.92;;;11.50;99.90;;;;;;5067804;28;20028;-75
2021/05/28 03:51:46;;;;;;;4.93;2.00;;;11.50;99.90;;;;;;5080975;28;20039;-75
2021/05/28 03:54:11;;;;;;;1.92;1.42;;;11.50;99.90;;;;;;5077138;28;20032;-75
2021/05/28 03:56:37;;;;;;;2.22;1.60;;;11.50;99.90;;;;;;5075767;28;20230;-75
2021/05/28 03:59:03;;;;;;;1.90;1.25;;;11.50;99.90;;;;;;5083104;28;20035;-75
2021/05/28 04:01:28;;;;;;;4.43;1.85;;;11.50;99.90;;;;;;5077446;28;20391;-75
2021/05/28 04:03:54;;;;;;;3.38;1.83;;;11.50;99.90;;;;;;5087806;28;20028;-75
2021/05/28 04:06:19;;;;;;;2.17;1.70;;;11.50;99.90;;;;;;5076175;28;20108;-75
2021/05/28 04:08:45;;;;;;;3.67;1.75;;;11.50;99.90;;;;;;5078284;28;20442;-75
2021/05/28 04:11:11;;;;;;;3.70;1.65;;;11.50;99.90;;;;;;5071455;28;20025;-76
2021/05/28 04:13:36;;;;;;;3.35;1.63;;;11.60;99.90;;;;;;5055350;28;20621;-75
2021/05/28 04:16:02;;;;;;;3.30;1.42;;;11.60;99.90;;;;;;5077532;28;20115;-75
2021/05/28 04:18:28;;;;;;;3.50;1.80;;;11.60;99.90;;;;;;5072236;28;20035;-75
2021/05/28 04:20:53;;;;;;;4.35;2.53;;;11.60;99.90;;;;;;5068196;28;20491;-75
2021/05/28 04:23:19;;;;;;;3.58;1.98;;;11.70;99.90;;;;;;5057558;28;20029;-75
2021/05/28 04:25:48;;;;;;;2.45;1.55;;;11.70;99.90;;;;;;5072630;28;20034;-75
2021/05/28 04:28:15;;;;;;;2.05;1.60;;;11.70;99.90;;;;;;5070997;28;20047;-75
2021/05/28 04:30:41;;;;;;;3.45;1.60;;;11.80;99.90;;;;;;5083615;28;20466;-75
2021/05/28 04:33:07;;;;;;;2.00;1.80;;;11.80;99.90;;;;;;5067049;28;20497;-75
2021/05/28 04:35:33;;;;;;;3.00;1.95;;;11.80;99.90;;;;;;5070856;28;20025;-75
2021/05/28 04:37:58;;;;;;;4.68;1.90;;;11.80;99.90;;;;;;5085553;28;20055;-75
2021/05/28 04:40:24;;;;;;;2.30;1.90;;;11.80;99.90;;;;;;5073627;28;20021;-75
2021/05/28 04:42:49;;;;;;;2.20;2.00;;;11.90;99.90;;;;;;5067512;28;20474;-74
2021/05/28 04:45:15;;;;;;;3.55;2.10;;;11.90;99.90;;;;;;5069672;28;20051;-73
2021/05/28 04:47:53;;;;;;;1.73;1.42;;;11.90;99.90;;;;;;5073932;28;20033;-73
2021/05/28 04:50:18;;;;;;;5.05;2.20;;;11.90;99.90;;;;;;5063318;28;20035;-74
2021/05/28 04:52:45;;;;;;;2.95;2.05;;;11.90;99.90;;;;;;5070247;28;20016;-73
2021/05/28 04:55:12;;;;;;;4.10;1.98;;;11.90;99.90;;;;;;5069965;28;20024;-74
2021/05/28 04:57:37;;;;;;;2.47;1.92;;;12.00;99.90;;;;;;5087463;28;20181;-73
2021/05/28 05:00:08;;;;;;;3.85;2.00;;;12.00;99.90;;;;;;5072228;28;20117;-74
2021/05/28 05:02:34;;;;;;;4.10;1.93;;;12.00;99.90;;;;;;5077901;28;20028;-76
2021/05/28 05:04:59;;;;;;;3.42;2.00;;;12.00;99.90;;;;;;5084895;28;20345;-76
2021/05/28 05:07:25;;;;;;;2.90;1.80;;;11.90;99.90;;;;;;5075499;28;20069;-76
2021/05/28 05:09:53;;;;;;;3.35;2.10;;;12.00;99.90;;;;;;5064032;28;20449;-75
2021/05/28 05:12:19;;;;;;;6.97;2.20;;;12.00;99.90;;;;;;5071453;28;20028;-76
2021/05/28 05:14:44;;;;;;;4.85;1.90;;;12.00;99.90;;;;;;5067158;28;20031;-76
2021/05/28 05:17:09;;;;;;;3.90;2.20;;;12.10;99.90;;;;;;5071091;28;20052;-76
2021/05/28 05:19:35;;;;;;;5.38;2.47;;;12.10;99.90;;;;;;5066506;28;20550;-76
2021/05/28 05:22:00;;;;;;;7.25;2.10;;;12.10;99.90;;;;;;5066110;28;20028;-76
2021/05/28 05:24:26;;;;;;;2.97;2.25;;;12.10;99.90;;;;;;5075690;28;20073;-74
2021/05/28 05:26:58;;;;;;;4.28;2.25;;;12.10;99.90;;;;;;5074422;28;20478;-74
2021/05/28 05:29:24;;;;;;;20.40;3.75;;;12.10;99.90;;;;;;5072278;28;20044;-74
2021/05/28 05:31:49;;;;;;;7.95;2.50;;;12.10;99.90;;;;;;5067680;28;20050;-74
2021/05/28 05:34:14;;;;;;;3.00;2.33;;;12.20;99.90;;;;;;5061851;28;20020;-74
2021/05/28 05:36:40;;;;;;;5.85;2.50;;;12.20;99.90;;;;;;5054610;28;20511;-73
2021/05/28 05:39:18;;;;;;;4.05;2.28;;;12.30;99.90;;;;;;5061751;28;20075;-74
2021/05/28 05:41:44;;;;;;;3.75;2.53;;;12.20;99.90;;;;;;5066043;28;20520;-74
2021/05/28 05:44:09;;;;;;;5.45;2.60;;;12.30;99.90;;;;;;5061987;28;20056;-74
2021/05/28 05:46:35;;;;;;;3.97;2.95;;;12.30;99.90;;;;;;5055764;28;20031;-74
2021/05/28 05:49:01;;;;;;;5.22;2.50;;;12.40;99.90;;;;;;5051563;28;20108;-74
2021/05/28 05:51:26;;;;;;;4.10;2.80;;;12.50;99.90;;;;;;5064390;28;20229;-74
2021/05/28 05:53:52;;;;;;;5.63;2.67;;;12.60;99.90;;;;;;5067871;28;20024;-74
2021/05/28 05:56:18;;;;;;;4.10;2.67;;;12.60;99.90;;;;;;5063417;28;20036;-75
2021/05/28 05:58:43;;;;;;;3.17;2.20;;;12.60;99.90;;;;;;5064365;28;20017;-74
2021/05/28 06:01:09;;;;;;;3.42;2.42;;;12.60;99.90;;;;;;5059778;28;20024;-75
2021/05/28 06:03:35;;;;;;;3.85;2.47;;;12.60;99.90;;;;;;5060075;28;20108;-74
2021/05/28 06:06:01;;;;;;;6.22;2.83;;;12.60;99.90;;;;;;5063818;28;20513;-75
2021/05/28 06:08:26;;;;;;;4.00;2.50;;;12.70;99.90;;;;;;5069045;28;20111;-74
2021/05/28 06:10:52;;;;;;;7.20;2.72;;;12.70;99.90;;;;;;5058597;28;20025;-75
2021/05/28 06:13:17;;;;;;;9.38;3.05;;;12.80;99.90;;;;;;5060224;28;20025;-75
2021/05/28 06:15:43;;;;;;;4.03;2.70;;;12.80;99.90;;;;;;5061741;28;20138;-75
2021/05/28 06:18:08;;;;;;;6.10;3.15;;;12.80;99.90;;;;;;5065750;28;20432;-75
2021/05/28 06:20:35;;;;;;;3.83;2.58;;;12.80;99.90;;;;;;5065114;28;20546;-75
2021/05/28 06:23:00;;;;;;;10.93;2.83;;;12.80;99.90;;;;;;5049296;28;20171;-76
2021/05/28 06:25:27;;;;;;;6.35;3.03;;;12.80;99.90;;;;;;5062470;28;20458;-75
2021/05/28 06:27:52;;;;;;;4.55;2.40;;;12.80;99.90;;;;;;5068764;28;20040;-73
2021/05/28 06:30:18;;;;;;;5.53;3.05;;;13.00;99.90;;;;;;5071033;28;20028;-76
2021/05/28 06:32:44;;;;;;;5.78;3.17;;;13.00;99.90;;;;;;5058387;28;20025;-76
2021/05/28 06:35:10;;;;;;;13.85;3.45;;;13.00;99.90;;;;;;5056514;28;20100;-77
2021/05/28 06:37:35;;;;;;;9.88;3.47;;;13.10;99.90;;;;;;5058578;28;20112;-75
2021/05/28 06:40:01;;;;;;;6.30;2.92;;;13.10;99.90;;;;;;5072368;28;20036;-76
2021/05/28 06:42:34;;;;;;;4.60;3.00;;;13.10;99.90;;;;;;5071308;28;20039;-75
2021/05/28 06:44:59;;;;;;;5.22;3.00;;;13.20;99.90;;;;;;5055290;28;20033;-75
2021/05/28 06:47:25;;;;;;;7.82;3.17;;;13.20;99.90;;;;;;5064933;28;20128;-75
2021/05/28 06:49:51;;;;;;;8.55;3.13;;;13.30;99.90;;;;;;5068548;28;20545;-75
2021/05/28 06:52:18;;;;;;;4.47;2.92;;;13.30;99.90;;;;;;5077158;28;20473;-75
2021/05/28 06:54:44;;;;;;;2.97;2.67;;;13.30;99.90;;;;;;5063161;28;20488;-75
2021/05/28 06:57:09;;;;;;;4.47;2.85;;;13.40;99.90;;;;;;5059104;28;20035;-76
2021/05/28 06:59:34;;;;;;;3.42;2.70;;;13.50;99.90;;;;;;5070880;28;20367;-76
2021/05/28 07:02:00;;;;;;;4.88;3.15;;;13.50;99.90;;;;;;5059160;28;20040;-74
2021/05/28 07:04:25;;;;;;;4.35;2.85;;;13.50;99.90;;;;;;5055634;28;20040;-73
2021/05/28 07:06:51;;;;;;;8.25;3.20;;;13.50;99.90;;;;;;5067052;28;20050;-73
2021/05/28 07:09:16;;;;;;;4.07;2.80;;;13.50;99.90;;;;;;5059628;28;20028;-73
2021/05/28 07:11:42;;;;;;;4.63;3.40;;;13.50;99.90;;;;;;5059611;28;20047;-72
2021/05/28 07:14:07;;;;;;;7.55;3.30;;;13.60;99.90;;;;;;5065579;28;20064;-73
2021/05/28 07:16:33;;;;;;;3.47;2.80;;;13.50;99.90;;;;;;5060425;28;20145;-74
2021/05/28 07:18:58;;;;;;;3.80;2.88;;;13.40;99.90;;;;;;5054602;28;20017;-72
2021/05/28 07:21:27;;;;;;;5.15;2.95;;;13.30;99.90;;;;;;5062027;28;20032;-73
2021/05/28 07:23:53;;;;;;;3.28;2.53;;;13.40;99.90;;;;;;5064950;28;20479;-73
2021/05/28 07:26:18;;;;;;;6.63;2.70;;;13.50;99.90;;;;;;5058970;28;20037;-73
2021/05/28 07:28:44;;;;;;;4.13;2.88;;;13.60;99.90;;;;;;5067845;28;20029;-75
2021/05/28 07:31:10;;;;;;;4.03;2.72;;;13.80;99.90;;;;;;5070929;28;20037;-74
2021/05/28 07:33:37;;;;;;;3.50;2.22;;;13.90;99.90;;;;;;5070847;28;20038;-74
2021/05/28 07:36:03;;;;;;;4.75;2.33;;;14.10;99.90;;;;;;5066078;28;20047;-74
2021/05/28 07:38:28;;;;;;;3.50;2.30;;;14.30;99.90;;;;;;5073899;28;20024;-75
2021/05/28 07:40:54;;;;;;;3.97;2.40;;;14.50;99.90;;;;;;5065364;28;20033;-75
2021/05/28 07:43:23;;;;;;;3.58;2.15;;;14.70;99.90;;;;;;5069983;28;20478;-75
2021/05/28 07:45:51;;;;;;;3.10;2.10;;;14.80;99.90;;;;;;5060207;28;20123;-74
2021/05/28 07:48:18;;;;;;;2.40;1.95;;;14.80;99.90;;;;;;5059444;28;20094;-74
2021/05/28 07:50:48;;;;;;;7.00;2.20;;;14.60;99.90;;;;;;5065808;28;20479;-74
2021/05/28 07:53:19;;;;;;;3.00;2.10;;;14.50;99.90;;;;;;5065042;28;20031;-74
2021/05/28 07:55:45;;;;;;;4.38;2.13;;;14.50;99.90;;;;;;5063061;28;20024;-75
2021/05/28 07:58:11;;;;;;;3.80;2.20;;;14.50;99.90;;;;;;5078343;28;20212;-75
2021/05/28 08:00:39;;;;;;;2.70;2.22;;;14.60;99.90;;;;;;5080744;28;20074;-75
2021/05/28 08:03:05;;;;;;;2.05;1.83;;;14.70;99.90;;;;;;5070135;28;20082;-74
2021/05/28 08:05:31;;;;;;;4.25;2.72;;;14.80;99.90;;;;;;5062484;28;20052;-74
2021/05/28 08:07:58;;;;;;;2.92;2.15;;;15.00;99.90;;;;;;5064489;28;20498;-73
2021/05/28 08:10:24;;;;;;;1.90;1.70;;;15.20;99.90;;;;;;5071796;28;20067;-74
2021/05/28 08:12:50;;;;;;;4.05;2.22;;;15.20;99.90;;;;;;5063778;28;20044;-75
2021/05/28 08:15:17;;;;;;;3.00;1.90;;;15.30;99.90;;;;;;5071155;28;20032;-74
2021/05/28 08:17:42;;;;;;;2.22;2.03;;;15.40;99.90;;;;;;5068959;28;20016;-74
2021/05/28 08:20:09;;;;;;;2.33;2.00;;;15.40;99.90;;;;;;5064343;28;20178;-75
2021/05/28 08:22:40;;;;;;;2.30;1.90;;;15.30;99.90;;;;;;5077297;28;20032;-76
2021/05/28 08:25:07;;;;;;;3.72;2.45;;;15.10;99.90;;;;;;5066138;28;20040;-73
2021/05/28 08:27:33;;;;;;;2.53;2.10;;;14.90;99.90;;;;;;5067424;28;20024;-74
2021/05/28 08:29:58;;;;;;;4.97;2.33;;;14.80;99.90;;;;;;5048346;28;20651;-74
2021/05/28 08:32:24;;;;;;;2.88;2.20;;;14.90;99.90;;;;;;5066257;28;20120;-74
2021/05/28 08:34:50;;;;;;;3.05;2.22;;;14.80;99.90;;;;;;5056798;28;20074;-75
2021/05/28 08:37:15;;;;;;;2.45;2.05;;;15.00;99.90;;;;;;5062011;28;20024;-75
2021/05/28 08:39:41;;;;;;;2.92;2.10;;;15.10;99.90;;;;;;5060959;28;20032;-74
2021/05/28 08:42:10;;;;;;;3.95;2.20;;;15.20;99.90;;;;;;5062640;28;20153;-75
2021/05/28 08:44:36;;;;;;;2.80;2.08;;;15.40;99.90;;;;;;5071125;28;20040;-75
2021/05/28 08:47:03;;;;;;;6.28;2.22;;;15.50;99.90;;;;;;5054951;28;20032;-74
2021/05/28 08:49:29;;;;;;;3.15;2.13;;;15.70;99.90;;;;;;5060735;28;20036;-75
2021/05/28 08:51:57;;;;;;;3.65;2.10;;;15.90;99.90;;;;;;5060288;28;20506;-74
2021/05/28 08:54:25;;;;;;;2.65;1.80;;;15.90;99.90;;;;;;5063785;28;20032;-74
2021/05/28 08:56:52;;;;;;;1.58;1.48;;;15.80;99.90;;;;;;5058730;28;20409;-74
2021/05/28 08:59:18;;;;;;;3.15;1.83;;;15.80;99.90;;;;;;5056151;28;20043;-73
2021/05/28 09:01:43;;;;;;;1.42;1.33;;;15.80;99.90;;;;;;5054761;28;20025;-74
2021/05/28 09:04:11;;;;;;;1.98;1.45;;;15.80;99.90;;;;;;5054452;28;20029;-74
2021/05/28 09:06:40;;;;;;;1.55;1.42;;;15.90;99.10;;;;;;5056896;28;20131;-74
2021/05/28 09:09:14;;;;;;;2.47;1.63;;;15.90;99.10;;;;;;5069891;28;20038;-74
2021/05/28 09:12:12;;;;;;;1.42;1.23;;;16.00;99.90;;;;;;5061932;28;20032;-73
2021/05/28 09:14:38;;;;;;;5.10;1.38;;;16.20;97.10;;;;;;5048322;28;20055;-73
2021/05/28 09:17:12;;;;;;;3.25;1.55;;;16.30;95.00;;;;;;5056758;28;20107;-73
2021/05/28 09:19:38;;;;;;;3.10;1.30;;;16.40;93.50;;;;;;5057166;28;20033;-74
2021/05/28 09:22:09;;;;;;;2.90;1.00;;;16.50;95.30;;;;;;5056184;28;20033;-74
2021/05/28 09:24:45;;;;;;;1.33;1.20;;;16.60;92.90;;;;;;5058613;28;20513;-74
2021/05/28 09:27:36;;;;;;;1.20;1.00;;;16.50;91.00;;;;;;5068546;28;20048;-74
2021/05/28 09:30:05;;;;;;;0.90;0.90;;;16.50;93.20;;;;;;5066738;28;20475;-74
2021/05/28 09:32:35;;;;;;;2.58;0.93;;;16.50;89.30;;;;;;5067720;28;20115;-74
2021/05/28 09:35:01;;;;;;;1.40;0.90;;;16.50;87.00;;;;;;5065846;28;20037;-73
2021/05/28 09:37:40;;;;;;;1.98;0.70;;;16.30;84.20;;;;;;5056471;28;20021;-73
2021/05/28 09:40:13;;;;;;;0.90;0.70;;;16.10;81.60;;;;;;5055979;28;20070;-74
2021/05/28 09:42:59;;;;;;;2.00;0.70;;;15.90;82.60;;;;;;5066782;28;20053;-76
2021/05/28 09:45:36;;;;;;;0.52;0.52;;;15.80;83.00;;;;;;5068752;28;20475;-77
2021/05/28 09:48:15;;;;;;;0.75;0.60;;;15.70;86.70;;;;;;5064325;28;20059;-74
2021/05/28 09:50:49;;;;;;;0.85;0.50;;;15.60;87.10;;;;;;5049740;28;20074;-76
2021/05/28 09:53:36;;;;;;;3.60;0.47;;;15.40;87.10;;;;;;5054535;28;20150;-75
2021/05/28 09:56:22;;;;;;;0.45;0.45;;;15.10;90.40;;;;;;5055418;28;20028;-75
2021/05/28 09:59:07;;;;;;;0.95;0.50;;;15.00;91.80;;;;;;5065272;28;20029;-73
2021/05/28 10:01:35;;;;;;;0.60;0.50;;;14.90;93.50;;;;;;5068744;28;20020;-73
2021/05/28 10:04:08;;;;;;;0.80;0.60;;;14.90;96.60;;;;;;5058899;28;20432;-73
2021/05/28 10:06:36;;;;;;;0.60;0.57;;;14.90;98.10;;;;;;5061086;28;20052;-74
2021/05/28 10:09:08;;;;;;;0.80;0.70;;;14.80;99.80;;;;;;5048227;28;20029;-73
2021/05/28 10:11:35;;;;;;;0.60;0.60;;;14.80;99.90;;;;;;5062742;28;20110;-73
2021/05/28 10:14:01;;;;;;;0.65;0.65;;;14.90;99.90;;;;;;5063014;28;20029;-72
2021/05/28 10:16:26;;;;;;;1.10;0.80;;;14.90;99.90;;;;;;5067782;28;20032;-72
2021/05/28 10:18:53;;;;;;;1.00;0.88;;;15.10;99.90;;;;;;5064909;28;20024;-72
2021/05/28 10:21:19;;;;;;;0.75;0.70;;;15.20;99.90;;;;;;5050006;28;20037;-73
2021/05/28 10:23:45;;;;;;;0.90;0.70;;;15.10;99.90;;;;;;5055250;28;20029;-73
2021/05/28 10:26:11;;;;;;;0.95;0.85;;;14.90;99.90;;;;;;5065358;28;20033;-73
2021/05/28 10:28:41;;;;;;;0.80;0.80;;;14.70;99.90;;;;;;5062957;28;20032;-72
2021/05/28 10:31:07;;;;;;;0.85;0.85;;;14.60;99.90;;;;;;5055834;28;20489;-73
2021/05/28 10:33:34;;;;;;;1.80;0.90;;;14.50;99.90;;;;;;5062419;28;20082;-73
2021/05/28 10:36:03;;;;;;;0.90;0.90;;;14.50;99.90;;;;;;5053246;28;20037;-73
2021/05/28 10:38:31;;;;;;;1.90;1.13;;;14.50;99.90;;;;;;5056917;28;20025;-73
2021/05/28 10:41:00;;;;;;;1.38;1.00;;;14.60;99.90;;;;;;5058222;28;20017;-72
2021/05/28 10:43:27;;;;;;;1.10;1.00;;;14.60;99.90;;;;;;5055557;28;20028;-73
2021/05/28 10:46:11;;;;;;;0.80;0.80;;;14.70;99.90;;;;;;5048304;28;20039;-72
2021/05/28 10:48:39;;;;;;;2.15;1.00;;;14.70;99.90;;;;;;5056400;28;20394;-73
2021/05/28 10:51:16;;;;;;;0.80;0.80;;;14.80;99.90;;;;;;5048404;28;20025;-73
2021/05/28 10:54:02;;;;;;;0.85;0.80;;;14.80;99.90;;;;;;5055995;28;20265;-73
2021/05/28 10:56:49;;;;;;;0.93;0.70;;;14.80;99.90;;;;;;5054525;28;20040;-74
2021/05/28 10:59:16;;;;;;;0.82;0.82;;;14.80;99.90;;;;;;5066965;28;20112;-76
2021/05/28 11:01:45;;;;;;;1.15;0.90;;;14.80;99.90;;;;;;5051833;28;20017;-74
2021/05/28 11:04:13;;;;;;;1.33;0.90;;;14.70;99.90;;;;;;5054406;28;20108;-73
2021/05/28 11:09:46;;;;;;;1.48;0.90;;;14.60;99.90;;;;;;5059735;28;20075;-75
2021/05/28 11:12:16;;;;;;;1.42;1.00;;;14.60;99.90;;;;;;5051591;28;20037;-73
2021/05/28 11:15:22;;;;;;;1.13;1.00;;;14.60;99.90;;;;;;5053840;28;20131;-73
2021/05/28 11:18:09;;;;;;;4.35;0.85;;;14.80;99.90;;;;;;5042114;28;20262;-74
2021/05/28 11:20:37;;;;;;;1.15;0.70;;;15.00;99.90;;;;;;5039784;28;20398;-77
2021/05/28 11:23:14;;;;;;;3.67;0.90;;;15.30;99.90;;;;;;5043913;28;20041;-71
2021/05/28 11:25:51;;;;;;;0.93;0.93;;;15.40;99.90;;;;;;5066853;28;20028;-73
2021/05/28 11:28:17;;;;;;;0.70;0.70;;;15.60;99.90;;;;;;5051306;28;20029;-72
2021/05/28 11:30:50;;;;;;;0.70;0.70;;;15.70;99.90;;;;;;5054934;28;20556;-72
2021/05/28 11:33:35;;;;;;;4.72;0.98;;;15.80;99.90;;;;;;5061896;28;20038;-71
2021/05/28 11:36:17;;;;;;;2.22;0.98;;;16.20;99.90;;;;;;5059525;28;20032;-69
2021/05/28 11:38:52;;;;;;;1.27;0.85;;;17.00;99.90;;;;;;5056358;28;20017;-70
2021/05/28 11:41:18;;;;;;;1.35;0.73;;;17.90;99.90;;;;;;5067762;28;20036;-70
2021/05/28 11:43:44;;;;;;;0.82;0.70;;;19.10;95.10;;;;;;5068489;28;20071;-70
2021/05/28 11:46:10;;;;;;;1.75;1.05;;;20.10;91.00;;;;;;5049839;28;20039;-70
2021/05/28 11:48:35;;;;;;;0.70;0.70;;;21.10;81.10;;;;;;5055003;28;20033;-75
2021/05/28 11:51:03;;;;;;;1.45;0.80;;;21.60;76.40;;;;;;5053194;28;20025;-75
2021/05/28 11:53:38;;;;;;;2.60;0.75;;;22.40;75.30;;;;;;5058237;28;20025;-75
2021/05/28 11:56:05;;;;;;;0.70;0.70;;;22.80;66.80;;;;;;5057569;28;20029;-74
2021/05/28 11:58:33;;;;;;;1.50;0.85;;;23.10;64.20;;;;;;5054533;28;20017;-76
2021/05/28 12:01:01;;;;;;;2.67;0.90;;;22.60;61.40;;;;;;5048025;28;20041;-75
2021/05/28 12:03:27;;;;;;;5.78;0.82;;;22.00;65.60;;;;;;5054042;28;20047;-73
2021/05/28 12:05:54;;;;;;;1.58;0.70;;;20.90;66.30;;;;;;5065076;28;20049;-73
2021/05/28 12:08:21;;;;;;;1.58;0.70;;;19.50;70.30;;;;;;5067845;28;20090;-73
2021/05/28 12:10:49;;;;;;;3.15;1.00;;;18.30;75.80;;;;;;5082252;28;20036;-73
2021/05/28 12:13:16;;;;;;;0.90;0.70;;;17.50;82.50;;;;;;5054104;28;20024;-72
2021/05/28 12:15:44;;;;;;;1.17;0.70;;;17.00;86.70;;;;;;5054467;28;20554;-73
2021/05/28 12:18:16;;;;;;;2.70;1.10;;;17.10;91.60;;;;;;5065033;28;20039;-73
2021/05/28 12:20:43;;;;;;;0.88;0.80;;;17.30;91.40;;;;;;5066621;28;20055;-73
2021/05/28 12:23:15;;;;;;;0.88;0.85;;;17.00;90.50;;;;;;5069185;28;20032;-73
2021/05/28 12:25:42;;;;;;;;;;;16.50;92.50;;;;;;5068551;28;20115;-73
2021/05/28 12:28:22;;;;;;;1.45;0.80;;;16.10;93.00;;;;;;5064155;28;19908;-73
2021/05/28 12:30:53;;;;;;;1.80;1.20;;;15.80;94.20;;;;;;5070253;28;20031;-72
2021/05/28 12:33:20;;;;;;;1.00;0.83;;;15.50;97.00;;;;;;5061370;28;20087;-73
2021/05/28 12:35:51;;;;;;;3.03;1.23;;;15.30;98.20;;;;;;5068196;28;20032;-72
2021/05/28 12:38:19;;;;;;;4.30;1.63;;;15.10;99.30;;;;;;5067843;28;20024;-73
2021/05/28 12:40:46;;;;;;;1.30;1.10;;;15.00;99.90;;;;;;5072458;28;20394;-73
2021/05/28 12:43:19;;;;;;;2.75;1.38;;;15.00;99.90;;;;;;5057581;28;20033;-73
2021/05/28 12:45:45;;;;;;;2.58;1.48;;;15.00;99.90;;;;;;5061314;28;20025;-73
2021/05/28 12:48:12;;;;;;;1.52;1.38;;;15.10;99.90;;;;;;5075716;28;20035;-74
2021/05/28 12:50:43;;;;;;;3.75;1.60;;;15.20;99.90;;;;;;5069023;28;20037;-73
2021/05/28 12:53:27;;;;;;;1.40;1.25;;;15.20;99.90;;;;;;5054297;28;20041;-73
2021/05/28 12:55:56;;;;;;;1.38;1.20;;;16.60;99.90;;;;;;5055684;28;20055;-73
2021/05/28 12:58:28;;;;;;;2.85;1.30;;;18.10;99.70;;;;;;5069145;28;20032;-74